Time;durP1;ratioP1;P1;durP2;ratioP2;P2;SDS_P1;SDS_P2;PMS_P1;PMS_P2;Temp;Humidity;BMP_temperature;BMP_pressure;BME280_temperature;BME280_humidity;BME280_pressure;Samples;Min_cycle;Max_cycle;Signal;HPM_P1;HPM_P2
2022/07/22 00:00:34;;;;;;;6.40;3.72;;;20.80;66.10;;;;;;4996152;28;20026;-78
2022/07/22 00:02:59;;;;;;;5.72;3.40;;;20.70;66.50;;;;;;4995212;28;20034;-78
2022/07/22 00:05:25;;;;;;;5.03;3.22;;;20.80;66.80;;;;;;4994848;28;20026;-78
2022/07/22 00:07:50;;;;;;;9.15;3.50;;;20.70;66.50;;;;;;4995987;28;20041;-78
2022/07/22 00:10:16;;;;;;;5.68;3.47;;;20.70;66.70;;;;;;4996534;28;20109;-78
2022/07/22 00:12:44;;;;;;;6.35;3.65;;;20.70;67.00;;;;;;4995990;28;20089;-78
2022/07/22 00:15:10;;;;;;;4.90;3.72;;;20.60;67.10;;;;;;4996464;28;20049;-78
2022/07/22 00:17:36;;;;;;;7.60;3.20;;;20.70;66.90;;;;;;4995884;28;20030;-78
2022/07/22 00:20:04;;;;;;;5.60;3.20;;;20.70;67.20;;;;;;4996325;28;20089;-78
2022/07/22 00:22:29;;;;;;;6.82;4.07;;;20.60;67.20;;;;;;4996067;28;20085;-78
2022/07/22 00:24:55;;;;;;;7.35;3.38;;;20.70;66.80;;;;;;4996420;28;20035;-78
2022/07/22 00:27:21;;;;;;;5.75;3.83;;;20.50;67.30;;;;;;4995637;28;20034;-78
2022/07/22 00:29:54;;;;;;;5.32;3.03;;;20.60;67.60;;;;;;4996172;28;20030;-78
2022/07/22 00:32:19;;;;;;;8.38;3.33;;;20.50;67.70;;;;;;4995377;28;20074;-78
2022/07/22 00:34:45;;;;;;;6.97;3.15;;;20.50;67.60;;;;;;4996170;28;20498;-78
2022/07/22 00:37:10;;;;;;;6.03;3.15;;;20.50;67.60;;;;;;4995623;28;20023;-78
2022/07/22 00:39:37;;;;;;;4.25;3.13;;;20.40;68.80;;;;;;4994213;28;20485;-78
2022/07/22 00:42:03;;;;;;;5.82;3.45;;;20.40;68.10;;;;;;4996134;28;20493;-78
2022/07/22 00:44:29;;;;;;;6.22;3.25;;;20.40;68.50;;;;;;4996331;28;20031;-79
2022/07/22 00:46:54;;;;;;;5.15;2.92;;;20.30;69.00;;;;;;4994070;28;20037;-78
2022/07/22 00:49:20;;;;;;;6.40;3.20;;;20.30;68.50;;;;;;4994709;28;20830;-78
2022/07/22 00:51:47;;;;;;;5.75;3.63;;;20.30;68.70;;;;;;4995971;28;20465;-78
2022/07/22 00:54:13;;;;;;;5.35;3.40;;;20.30;68.50;;;;;;5007614;28;20070;-78
2022/07/22 00:56:39;;;;;;;6.85;3.97;;;20.30;68.90;;;;;;4976587;28;20027;-78
2022/07/22 00:59:08;;;;;;;6.63;3.90;;;20.30;68.90;;;;;;4975943;28;20561;-78
2022/07/22 01:01:34;;;;;;;7.03;3.22;;;20.30;69.00;;;;;;4994542;28;20030;-78
2022/07/22 01:04:01;;;;;;;8.25;3.50;;;20.30;68.80;;;;;;4995252;28;20073;-78
2022/07/22 01:06:28;;;;;;;5.32;3.25;;;20.30;69.50;;;;;;4995852;28;20507;-78
2022/07/22 01:08:56;;;;;;;10.48;3.90;;;20.20;69.50;;;;;;4995773;28;20195;-78
2022/07/22 01:11:21;;;;;;;6.25;3.75;;;20.20;69.80;;;;;;4994454;28;20025;-78
2022/07/22 01:13:48;;;;;;;7.65;3.45;;;20.20;69.40;;;;;;4995311;28;20572;-78
2022/07/22 01:16:15;;;;;;;6.80;3.60;;;20.30;69.40;;;;;;4995572;28;20145;-78
2022/07/22 01:18:42;;;;;;;6.78;3.75;;;20.30;69.20;;;;;;5001062;28;20070;-78
2022/07/22 01:21:11;;;;;;;7.20;3.78;;;20.30;69.60;;;;;;4999226;28;20062;-78
2022/07/22 01:23:38;;;;;;;6.57;3.50;;;20.20;69.40;;;;;;4999169;28;20066;-78
2022/07/22 01:26:04;;;;;;;6.97;3.33;;;20.20;69.70;;;;;;4999635;28;20026;-78
2022/07/22 01:28:30;;;;;;;6.65;4.13;;;20.20;69.50;;;;;;5014323;28;20042;-78
2022/07/22 01:30:56;;;;;;;5.88;3.80;;;20.20;69.50;;;;;;4999547;28;20027;-78
2022/07/22 01:33:23;;;;;;;4.75;3.65;;;20.20;69.50;;;;;;4998944;28;20038;-78
2022/07/22 01:35:50;;;;;;;6.45;3.70;;;20.20;69.50;;;;;;4999245;28;20031;-78
2022/07/22 01:38:16;;;;;;;7.05;3.53;;;20.20;69.60;;;;;;4999648;28;20034;-78
2022/07/22 01:40:44;;;;;;;7.20;3.83;;;20.10;69.60;;;;;;4999328;28;20030;-78
2022/07/22 01:43:10;;;;;;;8.68;3.95;;;20.10;69.50;;;;;;4998841;28;20037;-78
2022/07/22 01:45:36;;;;;;;10.10;4.13;;;20.10;69.90;;;;;;4998224;28;20137;-78
2022/07/22 01:48:02;;;;;;;4.97;3.47;;;20.10;70.10;;;;;;4999183;28;20088;-78
2022/07/22 01:50:28;;;;;;;8.80;4.65;;;20.10;69.80;;;;;;4998146;28;20118;-78
2022/07/22 01:52:54;;;;;;;8.30;4.28;;;20.00;70.50;;;;;;4999133;28;20098;-78
2022/07/22 01:55:22;;;;;;;8.85;4.03;;;20.00;70.70;;;;;;4998778;28;20092;-78
2022/07/22 01:57:48;;;;;;;6.90;4.00;;;20.00;70.40;;;;;;4998907;28;20038;-78
2022/07/22 02:00:14;;;;;;;6.82;4.57;;;20.00;70.20;;;;;;4997431;28;20076;-78
2022/07/22 02:02:40;;;;;;;8.90;4.38;;;20.00;70.20;;;;;;4997852;28;20022;-78
2022/07/22 02:05:06;;;;;;;9.88;4.15;;;19.90;70.60;;;;;;4999005;28;20030;-78
2022/07/22 02:07:32;;;;;;;9.25;5.05;;;19.90;70.60;;;;;;4998314;28;20532;-78
2022/07/22 02:09:59;;;;;;;5.13;3.83;;;19.90;70.80;;;;;;4998275;28;20037;-78
2022/07/22 02:12:27;;;;;;;7.32;4.18;;;20.00;70.60;;;;;;4998216;28;20085;-78
2022/07/22 02:14:52;;;;;;;7.97;4.28;;;20.00;70.10;;;;;;4997526;28;20046;-78
2022/07/22 02:17:18;;;;;;;9.60;4.25;;;20.00;70.40;;;;;;4997041;28;20057;-78
2022/07/22 02:19:44;;;;;;;8.95;4.70;;;20.00;70.30;;;;;;4998751;28;20053;-78
2022/07/22 02:22:09;;;;;;;7.40;4.03;;;20.00;70.60;;;;;;4998689;28;20477;-78
2022/07/22 02:24:35;;;;;;;11.25;4.38;;;19.90;70.90;;;;;;4998574;28;20034;-78
2022/07/22 02:27:01;;;;;;;11.70;4.28;;;19.90;70.80;;;;;;4998315;28;20026;-78
2022/07/22 02:29:30;;;;;;;7.53;4.18;;;19.90;71.10;;;;;;4997439;28;20038;-78
2022/07/22 02:31:55;;;;;;;9.20;4.55;;;19.90;71.10;;;;;;5012917;28;20018;-78
2022/07/22 02:34:21;;;;;;;7.18;4.65;;;19.90;70.60;;;;;;4998416;28;20026;-78
2022/07/22 02:36:47;;;;;;;7.38;4.28;;;20.00;70.70;;;;;;4998317;28;20026;-78
2022/07/22 02:39:13;;;;;;;9.10;5.07;;;19.90;70.60;;;;;;4997967;28;20035;-78
2022/07/22 02:41:38;;;;;;;8.13;4.60;;;19.90;70.90;;;;;;4996982;28;20845;-78
2022/07/22 02:44:04;;;;;;;10.73;5.40;;;19.90;70.60;;;;;;4998167;28;20037;-78
2022/07/22 02:46:30;;;;;;;9.98;4.90;;;19.90;71.00;;;;;;4997695;28;20444;-78
2022/07/22 02:48:57;;;;;;;11.32;5.30;;;19.80;71.30;;;;;;4997584;28;20026;-78
2022/07/22 02:51:23;;;;;;;7.22;4.78;;;19.80;71.90;;;;;;4997507;28;20145;-78
2022/07/22 02:53:48;;;;;;;10.55;5.45;;;19.80;71.60;;;;;;4996564;28;20026;-78
2022/07/22 02:56:14;;;;;;;9.85;5.32;;;19.80;71.60;;;;;;4997967;28;20062;-78
2022/07/22 02:58:40;;;;;;;9.32;4.55;;;19.80;71.60;;;;;;4997797;28;20023;-78
2022/07/22 03:01:06;;;;;;;8.13;5.30;;;19.80;71.70;;;;;;4997873;28;20045;-78
2022/07/22 03:03:32;;;;;;;11.35;5.68;;;19.80;71.50;;;;;;4997439;28;20038;-78
2022/07/22 03:05:58;;;;;;;12.45;5.43;;;19.80;71.90;;;;;;4997231;28;20042;-78
2022/07/22 03:08:25;;;;;;;10.98;5.68;;;19.80;72.10;;;;;;4997669;28;20401;-78
2022/07/22 03:10:51;;;;;;;9.70;6.03;;;19.80;72.30;;;;;;4995947;28;20030;-78
2022/07/22 03:13:17;;;;;;;13.18;6.35;;;19.80;71.80;;;;;;4997692;28;20019;-78
2022/07/22 03:15:42;;;;;;;9.52;5.00;;;19.80;72.40;;;;;;4997535;28;20046;-78
2022/07/22 03:18:08;;;;;;;9.30;5.82;;;19.80;72.10;;;;;;4997138;28;20034;-78
2022/07/22 03:20:34;;;;;;;11.98;5.97;;;19.80;72.30;;;;;;4996255;28;20033;-78
2022/07/22 03:22:59;;;;;;;9.32;5.55;;;19.80;72.60;;;;;;4996996;28;20053;-78
2022/07/22 03:25:25;;;;;;;12.30;5.97;;;19.80;72.50;;;;;;4997442;28;20037;-78
2022/07/22 03:27:51;;;;;;;10.43;6.38;;;19.80;72.20;;;;;;4996764;28;20088;-78
2022/07/22 03:30:16;;;;;;;9.88;5.70;;;19.80;72.80;;;;;;4997402;28;20520;-78
2022/07/22 03:32:44;;;;;;;12.63;6.30;;;19.80;73.20;;;;;;4996329;28;20053;-78
2022/07/22 03:35:11;;;;;;;11.63;5.22;;;19.80;72.70;;;;;;4997318;28;20077;-78
2022/07/22 03:37:37;;;;;;;13.02;6.15;;;19.80;72.50;;;;;;4996759;28;20039;-78
2022/07/22 03:40:03;;;;;;;12.27;6.15;;;19.80;72.70;;;;;;4995122;28;20382;-78
2022/07/22 03:42:29;;;;;;;10.85;6.03;;;19.80;72.60;;;;;;4996646;28;20101;-79
2022/07/22 03:44:55;;;;;;;10.60;6.07;;;19.80;73.20;;;;;;4996973;28;20061;-78
2022/07/22 03:47:22;;;;;;;11.32;6.32;;;19.80;73.00;;;;;;4996458;28;20030;-78
2022/07/22 03:49:49;;;;;;;10.35;5.93;;;19.80;72.60;;;;;;4997019;28;20034;-78
2022/07/22 03:52:15;;;;;;;11.15;6.55;;;19.80;72.60;;;;;;4997055;28;20823;-78
2022/07/22 03:54:44;;;;;;;14.52;6.50;;;19.80;72.40;;;;;;4995349;28;20034;-79
2022/07/22 03:57:10;;;;;;;12.20;6.38;;;19.80;73.10;;;;;;4996786;28;20037;-79
2022/07/22 03:59:36;;;;;;;12.30;6.38;;;19.80;73.30;;;;;;4996876;28;20795;-79
2022/07/22 04:02:02;;;;;;;11.65;6.40;;;19.70;73.60;;;;;;4992358;28;20030;-78
2022/07/22 04:04:28;;;;;;;11.35;6.63;;;19.70;73.20;;;;;;4996704;28;20030;-78
2022/07/22 04:06:54;;;;;;;13.40;6.20;;;19.70;73.40;;;;;;4996759;28;20030;-78
2022/07/22 04:09:20;;;;;;;15.82;6.97;;;19.70;73.10;;;;;;4996142;28;20034;-78
2022/07/22 04:11:46;;;;;;;12.32;6.15;;;19.70;73.40;;;;;;5011891;28;20022;-78
2022/07/22 04:14:12;;;;;;;11.45;6.50;;;19.70;73.20;;;;;;4996526;28;20852;-78
2022/07/22 04:16:37;;;;;;;11.90;6.75;;;19.60;74.10;;;;;;4996545;28;20022;-78
2022/07/22 04:19:04;;;;;;;12.95;6.88;;;19.60;74.00;;;;;;4996010;28;20041;-78
2022/07/22 04:21:30;;;;;;;10.65;6.43;;;19.60;74.00;;;;;;4995385;28;20038;-78
2022/07/22 04:23:55;;;;;;;12.43;5.97;;;19.50;73.80;;;;;;4996524;28;20173;-78
2022/07/22 04:26:22;;;;;;;14.45;6.85;;;19.60;73.20;;;;;;4996266;28;20027;-78
2022/07/22 04:28:50;;;;;;;11.07;6.43;;;19.60;73.40;;;;;;5011464;28;20043;-77
2022/07/22 04:31:15;;;;;;;14.32;6.70;;;19.60;73.20;;;;;;4996076;28;20058;-78
2022/07/22 04:33:41;;;;;;;12.27;6.07;;;19.60;73.50;;;;;;4996348;28;20022;-78
2022/07/22 04:36:07;;;;;;;12.15;6.47;;;19.60;73.70;;;;;;4996403;28;20026;-78
2022/07/22 04:38:33;;;;;;;10.77;6.32;;;19.60;73.30;;;;;;4999024;28;20092;-78
2022/07/22 04:40:58;;;;;;;8.18;5.55;;;19.60;73.40;;;;;;4995754;28;20458;-78
2022/07/22 04:43:24;;;;;;;11.68;7.30;;;19.50;73.90;;;;;;4996449;28;20405;-78
2022/07/22 04:45:57;;;;;;;11.25;5.80;;;19.60;73.30;;;;;;4996062;28;20120;-78
2022/07/22 04:48:23;;;;;;;15.52;6.65;;;19.60;73.20;;;;;;4994376;28;20027;-78
2022/07/22 04:50:48;;;;;;;13.80;6.88;;;19.60;73.40;;;;;;4994453;28;20478;-78
2022/07/22 04:53:14;;;;;;;14.63;6.65;;;19.60;73.20;;;;;;4995875;28;20469;-78
2022/07/22 04:55:40;;;;;;;14.60;6.65;;;19.60;73.40;;;;;;4994517;28;20030;-78
2022/07/22 04:58:06;;;;;;;13.30;7.00;;;19.70;73.40;;;;;;4990482;28;20398;-78
2022/07/22 05:00:32;;;;;;;12.23;6.70;;;19.60;73.30;;;;;;4998777;28;20034;-78
2022/07/22 05:03:00;;;;;;;11.30;6.85;;;19.60;73.10;;;;;;4995389;28;20071;-78
2022/07/22 05:05:26;;;;;;;10.35;6.68;;;19.60;73.30;;;;;;4995915;28;20027;-78
2022/07/22 05:07:52;;;;;;;13.85;6.22;;;19.60;73.30;;;;;;4995890;28;20045;-78
2022/07/22 05:10:17;;;;;;;11.07;6.25;;;19.70;73.10;;;;;;4995228;28;20034;-78
2022/07/22 05:12:43;;;;;;;12.65;6.32;;;19.70;73.30;;;;;;4995716;28;20022;-78
2022/07/22 05:15:09;;;;;;;12.48;7.20;;;19.70;73.30;;;;;;4995426;28;20051;-78
2022/07/22 05:17:35;;;;;;;13.80;6.55;;;19.70;73.50;;;;;;4995660;28;20111;-78
2022/07/22 05:20:04;;;;;;;13.02;7.15;;;19.70;73.20;;;;;;4995224;28;20030;-78
2022/07/22 05:22:30;;;;;;;14.02;6.38;;;19.70;72.90;;;;;;4995751;28;20481;-78
2022/07/22 05:24:56;;;;;;;12.05;7.13;;;19.70;73.20;;;;;;4995834;28;20061;-78
2022/07/22 05:27:22;;;;;;;13.88;6.82;;;19.70;73.10;;;;;;4995073;28;20069;-78
2022/07/22 05:29:47;;;;;;;11.95;6.15;;;19.80;73.50;;;;;;4995549;28;20081;-78
2022/07/22 05:32:14;;;;;;;12.88;6.53;;;19.80;73.20;;;;;;4993844;28;20027;-78
2022/07/22 05:34:39;;;;;;;14.18;7.18;;;19.80;73.30;;;;;;4995161;28;20141;-78
2022/07/22 05:37:05;;;;;;;14.13;7.28;;;19.80;72.80;;;;;;4995086;28;20065;-78
2022/07/22 05:39:31;;;;;;;12.02;7.55;;;19.80;73.10;;;;;;4995548;28;20038;-78
2022/07/22 05:41:56;;;;;;;12.95;7.57;;;19.80;73.00;;;;;;4995514;28;20034;-79
2022/07/22 05:44:22;;;;;;;14.30;7.38;;;19.80;73.00;;;;;;4995488;28;20023;-78
2022/07/22 05:46:48;;;;;;;12.30;7.20;;;19.90;73.10;;;;;;4994973;28;20489;-79
2022/07/22 05:49:13;;;;;;;13.20;6.88;;;20.00;72.80;;;;;;4995482;28;20500;-78
2022/07/22 05:51:39;;;;;;;12.20;6.32;;;20.00;72.80;;;;;;4994464;28;20060;-78
2022/07/22 05:54:05;;;;;;;12.55;6.85;;;20.10;72.50;;;;;;5010727;28;20026;-78
2022/07/22 05:56:31;;;;;;;14.13;7.40;;;20.10;72.30;;;;;;4994521;28;20023;-78
2022/07/22 05:58:57;;;;;;;15.07;6.82;;;20.30;72.00;;;;;;4994787;28;20912;-78
2022/07/22 06:01:23;;;;;;;11.90;7.10;;;20.30;71.90;;;;;;4995406;28;20058;-79
2022/07/22 06:03:48;;;;;;;16.27;6.75;;;20.40;71.90;;;;;;4996759;28;20109;-78
2022/07/22 06:06:14;;;;;;;12.23;6.70;;;20.40;71.80;;;;;;4999005;28;20030;-78
2022/07/22 06:08:40;;;;;;;11.38;6.80;;;20.50;71.60;;;;;;4997971;28;20033;-78
2022/07/22 06:11:06;;;;;;;13.50;6.32;;;20.60;71.60;;;;;;4998719;28;20030;-78
2022/07/22 06:13:32;;;;;;;11.13;6.78;;;20.60;71.70;;;;;;4998297;28;20034;-79
2022/07/22 06:15:58;;;;;;;16.83;6.80;;;20.70;71.20;;;;;;4998881;28;20102;-78
2022/07/22 06:18:24;;;;;;;10.18;6.20;;;20.80;71.50;;;;;;4997133;28;20030;-78
2022/07/22 06:20:50;;;;;;;11.35;6.10;;;20.80;71.00;;;;;;4998041;28;20034;-78
2022/07/22 06:23:15;;;;;;;12.10;6.13;;;20.80;71.30;;;;;;4998837;28;20030;-78
2022/07/22 06:25:42;;;;;;;13.02;6.20;;;20.80;71.00;;;;;;4998123;28;20103;-78
2022/07/22 06:28:07;;;;;;;9.77;6.10;;;20.80;71.00;;;;;;4998508;28;20026;-78
2022/07/22 06:30:33;;;;;;;11.93;6.72;;;20.80;71.00;;;;;;4998057;28;20077;-78
2022/07/22 06:32:59;;;;;;;12.23;6.25;;;20.80;70.70;;;;;;4998443;28;20023;-78
2022/07/22 06:35:24;;;;;;;8.45;5.13;;;20.90;70.40;;;;;;4998454;28;20026;-78
2022/07/22 06:37:51;;;;;;;10.07;6.22;;;20.90;70.40;;;;;;4997995;28;20045;-78
2022/07/22 06:40:16;;;;;;;10.60;6.10;;;21.00;70.40;;;;;;4998474;28;20026;-78
2022/07/22 06:42:42;;;;;;;10.80;5.78;;;21.10;69.90;;;;;;4997721;28;20393;-78
2022/07/22 06:45:08;;;;;;;11.20;6.50;;;21.20;69.90;;;;;;4996839;28;20034;-78
2022/07/22 06:47:35;;;;;;;12.60;5.90;;;21.20;69.90;;;;;;4997083;28;20481;-78
2022/07/22 06:50:05;;;;;;;10.20;5.78;;;21.20;69.90;;;;;;4997570;28;20113;-78
2022/07/22 06:52:31;;;;;;;9.70;5.35;;;21.30;69.50;;;;;;4998022;28;20389;-78
2022/07/22 06:54:56;;;;;;;9.77;5.75;;;21.40;69.70;;;;;;4998132;28;20026;-78
2022/07/22 06:57:23;;;;;;;10.70;5.78;;;21.50;69.50;;;;;;4997780;28;20034;-78
2022/07/22 06:59:49;;;;;;;9.65;5.22;;;21.60;69.30;;;;;;4997998;28;20026;-78
2022/07/22 07:02:15;;;;;;;11.80;5.95;;;21.70;69.10;;;;;;5012470;28;20826;-78
2022/07/22 07:04:40;;;;;;;12.82;5.97;;;21.80;68.30;;;;;;4997311;28;20505;-78
2022/07/22 07:07:06;;;;;;;13.95;6.47;;;21.80;68.30;;;;;;4997316;28;20401;-78
2022/07/22 07:09:32;;;;;;;8.95;5.72;;;21.70;68.40;;;;;;4998110;28;20026;-78
2022/07/22 07:11:58;;;;;;;11.13;5.45;;;21.70;68.60;;;;;;4997918;28;20496;-78
2022/07/22 07:14:24;;;;;;;11.23;5.72;;;21.60;68.80;;;;;;4997105;28;20432;-78
2022/07/22 07:16:49;;;;;;;9.15;5.40;;;21.70;68.90;;;;;;4995364;28;20038;-78
2022/07/22 07:19:15;;;;;;;9.18;5.35;;;21.70;68.90;;;;;;4997129;28;20513;-78
2022/07/22 07:21:41;;;;;;;13.95;6.57;;;21.90;68.60;;;;;;4996965;28;20053;-78
2022/07/22 07:24:06;;;;;;;9.60;6.05;;;22.10;68.20;;;;;;4997016;28;20030;-78
2022/07/22 07:26:32;;;;;;;11.23;6.00;;;22.50;67.10;;;;;;4997051;28;20026;-78
2022/07/22 07:28:58;;;;;;;10.40;5.25;;;22.90;65.50;;;;;;4997311;28;20037;-78
2022/07/22 07:31:23;;;;;;;9.63;5.53;;;23.20;65.10;;;;;;4995786;28;20035;-78
2022/07/22 07:33:50;;;;;;;8.85;5.40;;;23.50;64.20;;;;;;4997431;28;20498;-78
2022/07/22 07:36:16;;;;;;;12.80;5.25;;;23.60;63.00;;;;;;4997299;28;20101;-78
2022/07/22 07:38:42;;;;;;;9.60;5.57;;;23.40;63.60;;;;;;4996424;28;20535;-78
2022/07/22 07:41:08;;;;;;;12.02;6.10;;;23.10;64.30;;;;;;4997058;28;20034;-78
2022/07/22 07:43:33;;;;;;;14.18;5.63;;;22.90;64.60;;;;;;4997127;28;20547;-78
2022/07/22 07:45:59;;;;;;;8.73;4.90;;;22.90;65.00;;;;;;4997110;28;20030;-79
2022/07/22 07:48:25;;;;;;;10.38;5.35;;;22.90;64.90;;;;;;4996864;28;20113;-78
2022/07/22 07:50:50;;;;;;;8.13;4.65;;;23.30;64.20;;;;;;4997072;28;20033;-78
2022/07/22 07:53:17;;;;;;;7.88;4.95;;;23.80;63.30;;;;;;4996661;28;20121;-78
2022/07/22 07:55:43;;;;;;;10.55;4.38;;;24.50;61.90;;;;;;4996924;28;20038;-78
2022/07/22 07:58:08;;;;;;;8.48;4.88;;;24.50;61.10;;;;;;4996191;28;20034;-78
2022/07/22 08:00:35;;;;;;;9.55;5.07;;;24.20;61.40;;;;;;4996542;28;20529;-78
2022/07/22 08:03:03;;;;;;;8.18;4.97;;;23.90;62.40;;;;;;5011278;28;20031;-78
2022/07/22 08:05:29;;;;;;;9.30;4.88;;;23.70;62.90;;;;;;4996655;28;20057;-78
2022/07/22 08:07:55;;;;;;;9.82;5.53;;;23.40;63.50;;;;;;4991567;28;20030;-78
2022/07/22 08:10:21;;;;;;;10.88;5.68;;;23.10;64.60;;;;;;4977224;28;20070;-78
2022/07/22 08:12:47;;;;;;;8.23;5.20;;;23.00;65.00;;;;;;4984746;28;20022;-78
2022/07/22 08:15:13;;;;;;;10.35;5.30;;;22.80;65.40;;;;;;4995351;28;20156;-78
2022/07/22 08:17:39;;;;;;;11.00;5.80;;;22.70;66.00;;;;;;4994597;28;20117;-78
2022/07/22 08:20:05;;;;;;;10.32;5.20;;;22.70;66.20;;;;;;4996130;28;20090;-78
2022/07/22 08:22:31;;;;;;;11.10;6.45;;;22.60;66.20;;;;;;4995367;28;20027;-78
2022/07/22 08:24:57;;;;;;;9.73;5.78;;;22.70;66.40;;;;;;4996348;28;20026;-78
2022/07/22 08:27:23;;;;;;;6.60;4.45;;;22.70;66.60;;;;;;4995732;28;20397;-78
2022/07/22 08:29:48;;;;;;;8.90;5.63;;;22.70;66.20;;;;;;4996209;28;20050;-78
2022/07/22 08:32:14;;;;;;;9.38;5.60;;;22.80;66.30;;;;;;4996297;28;20022;-78
2022/07/22 08:34:40;;;;;;;9.15;6.00;;;22.80;66.40;;;;;;4995808;28;20102;-78
2022/07/22 08:37:06;;;;;;;11.18;5.35;;;22.80;66.30;;;;;;4995741;28;20037;-78
2022/07/22 08:39:33;;;;;;;7.60;5.15;;;22.70;66.70;;;;;;4995678;28;20087;-78
2022/07/22 08:41:59;;;;;;;11.77;5.80;;;22.70;66.80;;;;;;4996094;28;20489;-78
2022/07/22 08:44:29;;;;;;;10.60;5.43;;;22.60;66.80;;;;;;4995567;28;20045;-78
2022/07/22 08:46:55;;;;;;;10.82;6.05;;;22.50;67.10;;;;;;4996056;28;20615;-78
2022/07/22 08:49:21;;;;;;;7.53;4.97;;;22.40;67.30;;;;;;4995662;28;20080;-79
2022/07/22 08:51:47;;;;;;;11.75;6.60;;;22.30;67.80;;;;;;4995934;28;20394;-78
2022/07/22 08:54:12;;;;;;;9.77;5.57;;;22.30;67.90;;;;;;4994977;28;22062;-78
2022/07/22 08:56:39;;;;;;;14.48;6.38;;;22.20;67.80;;;;;;4995927;28;20030;-78
2022/07/22 08:59:05;;;;;;;12.93;5.80;;;22.20;68.30;;;;;;5011312;28;20031;-78
2022/07/22 09:01:31;;;;;;;9.95;7.07;;;22.20;68.30;;;;;;4995915;28;20077;-78
2022/07/22 09:03:57;;;;;;;11.45;6.40;;;22.20;68.20;;;;;;4995481;28;20038;-78
2022/07/22 09:06:26;;;;;;;9.32;5.75;;;22.10;68.70;;;;;;5011190;28;20030;-78
2022/07/22 09:09:01;;;;;;;12.95;6.03;;;22.10;69.20;;;;;;4995909;28;20033;-78
2022/07/22 09:11:28;;;;;;;13.10;6.00;;;22.10;68.90;;;;;;4995019;28;20022;-78
2022/07/22 09:13:55;;;;;;;11.65;6.70;;;22.10;69.10;;;;;;4995366;28;20109;-78
2022/07/22 09:16:43;;;;;;;13.13;6.88;;;22.10;69.00;;;;;;4995841;28;20054;-78
2022/07/22 09:19:09;;;;;;;10.85;6.00;;;22.10;68.90;;;;;;4991523;28;20782;-78
2022/07/22 09:21:38;;;;;;;11.07;6.97;;;22.20;69.10;;;;;;4988882;28;20034;-79
2022/07/22 09:24:05;;;;;;;11.60;6.70;;;22.20;69.20;;;;;;4995854;28;20027;-78
2022/07/22 09:26:38;;;;;;;12.45;7.30;;;22.20;69.80;;;;;;4995568;28;20030;-79
2022/07/22 09:29:05;;;;;;;11.98;7.00;;;22.20;69.70;;;;;;4993863;28;20034;-79
2022/07/22 09:31:36;;;;;;;11.45;7.07;;;22.20;70.00;;;;;;4995035;28;20102;-78
2022/07/22 09:34:03;;;;;;;11.02;7.00;;;22.20;70.70;;;;;;4994508;28;20029;-78
2022/07/22 09:36:30;;;;;;;13.98;6.85;;;22.10;70.70;;;;;;4994314;28;20030;-79
2022/07/22 09:38:57;;;;;;;14.82;8.50;;;22.10;70.20;;;;;;4995419;28;20022;-79
2022/07/22 09:41:23;;;;;;;18.55;8.45;;;22.00;70.50;;;;;;4999344;28;20027;-79
2022/07/22 09:43:49;;;;;;;11.68;7.20;;;22.00;70.60;;;;;;4998339;28;20030;-79
2022/07/22 09:46:16;;;;;;;16.05;8.20;;;22.00;71.30;;;;;;5014199;28;20030;-79
2022/07/22 09:48:43;;;;;;;14.52;7.78;;;21.90;71.30;;;;;;4997523;28;20125;-79
2022/07/22 09:51:09;;;;;;;18.48;9.20;;;21.90;71.60;;;;;;4999029;28;20096;-79
2022/07/22 09:53:34;;;;;;;16.92;9.77;;;21.90;71.80;;;;;;5014623;28;20501;-79
2022/07/22 09:56:04;;;;;;;15.98;9.65;;;21.80;72.40;;;;;;4998726;28;20034;-79
2022/07/22 09:58:31;;;;;;;17.67;9.50;;;21.80;72.30;;;;;;4999000;28;20113;-79
2022/07/22 10:01:04;;;;;;;15.35;10.02;;;21.80;73.00;;;;;;4998710;28;20536;-79
2022/07/22 10:03:36;;;;;;;19.23;9.65;;;21.80;73.20;;;;;;4998610;28;20030;-79
2022/07/22 10:06:04;;;;;;;17.63;10.23;;;21.80;73.70;;;;;;4978990;28;20039;-79
2022/07/22 10:08:31;;;;;;;16.65;10.25;;;21.90;73.70;;;;;;4979579;28;20033;-79
2022/07/22 10:11:00;;;;;;;17.95;10.48;;;21.90;74.00;;;;;;4997205;28;20030;-79
2022/07/22 10:13:26;;;;;;;20.57;10.23;;;22.00;73.20;;;;;;5012633;28;20026;-79
2022/07/22 10:15:53;;;;;;;19.77;10.70;;;22.00;73.50;;;;;;4998667;28;20045;-79
2022/07/22 10:18:20;;;;;;;22.88;10.90;;;22.00;73.90;;;;;;4998478;28;20034;-79
2022/07/22 10:20:46;;;;;;;20.50;11.38;;;21.90;74.00;;;;;;4998632;28;20023;-79
2022/07/22 10:23:13;;;;;;;20.67;11.15;;;22.00;73.40;;;;;;4997908;28;20506;-79
2022/07/22 10:25:54;;;;;;;22.02;12.10;;;22.00;73.30;;;;;;5013930;28;20113;-79
2022/07/22 10:28:27;;;;;;;17.60;10.18;;;22.10;73.50;;;;;;4998502;28;20049;-79
2022/07/22 10:30:53;;;;;;;17.67;11.05;;;22.20;72.90;;;;;;4997856;28;20103;-79
2022/07/22 10:33:20;;;;;;;20.55;11.02;;;22.20;73.40;;;;;;5013543;28;20432;-79
2022/07/22 10:35:57;;;;;;;22.42;11.93;;;22.20;73.30;;;;;;4997010;28;20041;-79
2022/07/22 10:38:23;;;;;;;15.95;10.65;;;22.20;73.80;;;;;;4998408;28;20023;-79
2022/07/22 10:41:03;;;;;;;19.70;11.18;;;22.20;73.80;;;;;;4996244;28;20049;-79
2022/07/22 10:43:30;;;;;;;20.60;10.82;;;22.20;73.40;;;;;;4998457;28;20033;-79
2022/07/22 10:45:58;;;;;;;22.70;11.65;;;22.10;73.90;;;;;;4998247;28;20019;-79
2022/07/22 10:48:23;;;;;;;20.10;11.85;;;22.00;74.30;;;;;;4998212;28;20034;-79
2022/07/22 10:51:03;;;;;;;20.98;11.45;;;22.10;74.00;;;;;;4997065;28;20026;-79
2022/07/22 10:53:40;;;;;;;21.58;11.63;;;22.10;74.10;;;;;;4997585;28;20022;-79
2022/07/22 10:56:12;;;;;;;22.20;12.25;;;22.10;73.40;;;;;;4998097;28;20081;-79
2022/07/22 10:58:38;;;;;;;21.67;11.75;;;22.20;74.10;;;;;;5012560;28;20078;-79
2022/07/22 11:01:09;;;;;;;22.40;10.98;;;22.20;74.20;;;;;;4997412;28;20493;-79
2022/07/22 11:03:38;;;;;;;22.63;11.63;;;22.30;74.10;;;;;;4998154;28;20030;-79
2022/07/22 11:06:25;;;;;;;19.00;11.45;;;22.30;73.90;;;;;;4997415;28;20527;-79
2022/07/22 11:08:57;;;;;;;21.80;11.75;;;22.40;73.90;;;;;;4997721;28;20397;-79
2022/07/22 11:11:33;;;;;;;23.33;11.98;;;22.40;73.70;;;;;;4996221;28;20030;-79
2022/07/22 11:13:59;;;;;;;19.17;11.70;;;22.30;74.40;;;;;;4978148;28;20031;-79
2022/07/22 11:16:27;;;;;;;19.85;11.73;;;22.30;74.00;;;;;;4987373;28;20104;-79
2022/07/22 11:19:02;;;;;;;22.23;12.43;;;22.30;74.10;;;;;;4997225;28;20569;-79
2022/07/22 11:21:30;;;;;;;24.13;12.93;;;22.40;74.00;;;;;;4997450;28;20105;-79
2022/07/22 11:23:58;;;;;;;21.73;12.32;;;22.60;73.80;;;;;;4997435;28;20385;-79
2022/07/22 11:26:33;;;;;;;24.25;12.23;;;22.80;73.50;;;;;;4997061;28;20037;-79
2022/07/22 11:29:00;;;;;;;23.73;11.80;;;22.80;73.40;;;;;;4997281;28;20089;-79
2022/07/22 11:31:26;;;;;;;26.67;12.70;;;22.80;73.30;;;;;;4997508;28;20030;-79
2022/07/22 11:33:51;;;;;;;25.58;12.50;;;22.80;73.10;;;;;;4996765;28;20026;-79
2022/07/22 11:36:17;;;;;;;24.50;12.73;;;22.90;72.60;;;;;;4996795;28;20036;-79
2022/07/22 11:38:44;;;;;;;25.35;14.00;;;23.10;72.30;;;;;;4997233;28;20031;-79
2022/07/22 11:41:10;;;;;;;23.73;13.70;;;23.20;72.00;;;;;;5012424;28;20063;-79
2022/07/22 11:43:43;;;;;;;25.42;13.15;;;23.40;72.00;;;;;;4997149;28;20033;-79
2022/07/22 11:46:09;;;;;;;27.27;13.38;;;23.60;71.10;;;;;;4996708;28;20066;-79
2022/07/22 11:48:35;;;;;;;24.83;12.98;;;24.00;70.80;;;;;;4997222;28;20042;-79
2022/07/22 11:51:03;;;;;;;24.20;12.93;;;24.20;70.10;;;;;;5011753;28;20026;-79
2022/07/22 11:53:29;;;;;;;25.42;11.82;;;24.20;69.50;;;;;;4996085;28;20069;-79
2022/07/22 11:55:59;;;;;;;23.75;12.35;;;24.00;69.50;;;;;;4996971;28;20035;-79
2022/07/22 11:58:40;;;;;;;21.60;12.27;;;23.90;69.10;;;;;;5012009;28;20061;-79
2022/07/22 12:01:11;;;;;;;23.75;11.30;;;23.80;69.50;;;;;;5010795;28;20027;-79
2022/07/22 12:03:39;;;;;;;24.20;12.20;;;23.80;69.70;;;;;;4996087;28;20030;-79
2022/07/22 12:06:07;;;;;;;19.00;10.95;;;23.80;69.70;;;;;;4996681;28;20026;-79
2022/07/22 12:08:38;;;;;;;19.73;10.10;;;24.10;69.10;;;;;;4994247;28;20094;-79
2022/07/22 12:11:04;;;;;;;21.50;10.43;;;24.00;67.80;;;;;;4996097;28;20097;-80
2022/07/22 12:13:31;;;;;;;19.50;9.85;;;24.20;68.30;;;;;;4996443;28;20026;-79
2022/07/22 12:15:57;;;;;;;21.73;10.85;;;24.30;67.60;;;;;;4996268;28;20058;-79
2022/07/22 12:18:26;;;;;;;18.15;9.95;;;24.60;66.90;;;;;;4996417;28;20030;-79
2022/07/22 12:20:53;;;;;;;18.33;9.52;;;24.90;65.70;;;;;;5011184;28;20026;-79
2022/07/22 12:23:23;;;;;;;19.83;9.10;;;25.00;65.20;;;;;;4996433;28;20106;-79
2022/07/22 12:26:00;;;;;;;19.95;9.75;;;24.90;65.00;;;;;;4996491;28;20038;-79
2022/07/22 12:28:27;;;;;;;20.73;9.50;;;24.80;64.90;;;;;;5011190;28;20027;-79
2022/07/22 12:30:55;;;;;;;20.13;9.85;;;24.80;64.30;;;;;;5007190;28;20144;-79
2022/07/22 12:33:22;;;;;;;22.60;11.52;;;24.70;64.70;;;;;;4976767;28;20025;-79
2022/07/22 12:36:06;;;;;;;17.60;9.18;;;24.70;64.80;;;;;;4991865;28;20034;-79